Bear Creek Observed Data For Previous 48 Hours

Caption
Day and Hour Reservoir Elevation (behind dam)* Tailwater Elevation (below dam)* Average Hourly Discharge*
10/18/2017 1 AM CDT 575.36 539.20 130
10/18/2017 2 AM CDT 575.36 539.20 130
10/18/2017 3 AM CDT 575.36 539.20 130
10/18/2017 4 AM CDT 575.36 539.20 130
10/18/2017 5 AM CDT 575.35 539.20 130
10/18/2017 6 AM CDT 575.35 539.20 130
10/18/2017 7 AM CDT 575.35 539.23 132
10/18/2017 8 AM CDT 575.35 539.21 131
10/18/2017 9 AM CDT 575.35 539.20 130
10/18/2017 10 AM CDT 575.35 539.20 130
10/18/2017 11 AM CDT 575.35 539.20 130
10/18/2017 12 PM CDT 575.34 539.19 130
10/18/2017 1 PM CDT 575.34 539.20 130
10/18/2017 2 PM CDT 575.33 539.20 130
10/18/2017 3 PM CDT 575.33 539.19 130
10/18/2017 4 PM CDT 575.32 539.19 130
10/18/2017 5 PM CDT 575.32 539.20 130
10/18/2017 6 PM CDT 575.32 539.20 130
10/18/2017 7 PM CDT 575.32 539.19 130
10/18/2017 8 PM CDT 575.31 539.20 130
10/18/2017 9 PM CDT 575.31 539.20 130
10/18/2017 10 PM CDT 575.31 539.19 130
10/18/2017 11 PM CDT 575.31 539.20 130
10/19/2017 12 AM CDT 575.31 539.20 130
10/19/2017 1 AM CDT 575.30 539.20 130
10/19/2017 2 AM CDT 575.30 539.20 130
10/19/2017 3 AM CDT 575.30 539.20 130
10/19/2017 4 AM CDT 575.29 539.21 131
10/19/2017 5 AM CDT 575.29 539.20 130
10/19/2017 6 AM CDT 575.29 539.20 130
10/19/2017 7 AM CDT 575.28 539.20 130
10/19/2017 8 AM CDT 575.28 538.99 118
10/19/2017 9 AM CDT 575.28 538.79 105
10/19/2017 10 AM CDT 575.28 538.78 104
10/19/2017 11 AM CDT 575.29 538.78 104
10/19/2017 12 PM CDT 575.29 538.78 104
10/19/2017 1 PM CDT 575.29 538.77 103
10/19/2017 2 PM CDT 575.29 538.77 103
10/19/2017 3 PM CDT 575.30 538.77 103
10/19/2017 4 PM CDT 575.30 538.77 103
10/19/2017 5 PM CDT 575.31 538.63 88
10/19/2017 6 PM CDT 575.32 538.67 92
10/19/2017 7 PM CDT 575.32 538.68 93
10/19/2017 8 PM CDT 575.33 538.68 93
10/19/2017 9 PM CDT 575.34 538.68 93
10/19/2017 10 PM CDT 575.35 538.68 93

Elevations are in feet above sea level. Discharges are in cubic feet per second and are reported at the end of the hour.